Murray, Utah
Current Conditions -  °F | °C
As of 8:53 PM on Saturday 25 Oct 2014 (Local Time) from KSLC Reporting Station
Broken Clouds Broken Clouds  
Wind Chill: 71°   Ceiling: 20000
Heat Index: 71°   Visibility: 10mi
Dew Point: 38°   Wind: 18mph
Humidity: 30%   Direction: 170°S
Pressure: 29.87"   Gusts: 29mph
Location:  40.66°N, 111.88°W
Report Text: KSLC 260253Z 17016G25KT 10SM FEW120 BKN200 22/03 A2987 RMK AO2 PK WND 16028/0227 SLP074 60000 T02170033 56008
Loading
Personal Weather Stations






























Interactive Weather Map
Tropical Storm Tracking
New forecast layout! Learn more

10-Day Weather Forecast

Advertisements
Track Severe Weather on mobile